sensor_id;sensor_type;location;lat;lon;timestamp;P1;durP1;ratioP1;P2;durP2;ratioP2
3867;SDS011;1949;48.152;11.528;2023-07-09T00:02:16;11.23;;;6.80;;
3867;SDS011;1949;48.152;11.528;2023-07-09T00:04:43;12.80;;;5.23;;
3867;SDS011;1949;48.152;11.528;2023-07-09T00:07:17;8.93;;;5.00;;
3867;SDS011;1949;48.152;11.528;2023-07-09T00:09:43;9.13;;;5.13;;
3867;SDS011;1949;48.152;11.528;2023-07-09T00:12:15;7.77;;;4.90;;
3867;SDS011;1949;48.152;11.528;2023-07-09T00:14:42;10.40;;;5.30;;
3867;SDS011;1949;48.152;11.528;2023-07-09T00:17:15;10.87;;;4.60;;
3867;SDS011;1949;48.152;11.528;2023-07-09T00:19:46;9.20;;;4.70;;
3867;SDS011;1949;48.152;11.528;2023-07-09T00:22:15;10.97;;;5.30;;
3867;SDS011;1949;48.152;11.528;2023-07-09T00:24:43;16.60;;;8.87;;
3867;SDS011;1949;48.152;11.528;2023-07-09T00:27:10;16.67;;;7.30;;
3867;SDS011;1949;48.152;11.528;2023-07-09T00:29:36;11.10;;;5.73;;
3867;SDS011;1949;48.152;11.528;2023-07-09T00:32:02;11.13;;;5.00;;
3867;SDS011;1949;48.152;11.528;2023-07-09T00:34:28;10.30;;;4.87;;
3867;SDS011;1949;48.152;11.528;2023-07-09T00:36:54;11.73;;;5.33;;
3867;SDS011;1949;48.152;11.528;2023-07-09T00:39:20;8.03;;;5.10;;
3867;SDS011;1949;48.152;11.528;2023-07-09T00:41:47;11.77;;;4.80;;
3867;SDS011;1949;48.152;11.528;2023-07-09T00:49:15;7.50;;;4.87;;
3867;SDS011;1949;48.152;11.528;2023-07-09T00:55:07;10.20;;;4.50;;
3867;SDS011;1949;48.152;11.528;2023-07-09T00:57:37;10.43;;;5.53;;
3867;SDS011;1949;48.152;11.528;2023-07-09T01:00:09;7.90;;;4.20;;
3867;SDS011;1949;48.152;11.528;2023-07-09T01:02:39;8.03;;;4.60;;
3867;SDS011;1949;48.152;11.528;2023-07-09T01:05:10;9.43;;;4.77;;
3867;SDS011;1949;48.152;11.528;2023-07-09T01:07:38;9.73;;;3.97;;
3867;SDS011;1949;48.152;11.528;2023-07-09T01:10:05;22.33;;;4.93;;
3867;SDS011;1949;48.152;11.528;2023-07-09T01:12:31;6.70;;;4.30;;
3867;SDS011;1949;48.152;11.528;2023-07-09T01:14:57;8.60;;;4.60;;
3867;SDS011;1949;48.152;11.528;2023-07-09T01:17:24;8.00;;;4.00;;
3867;SDS011;1949;48.152;11.528;2023-07-09T01:19:54;9.07;;;4.27;;
3867;SDS011;1949;48.152;11.528;2023-07-09T01:22:22;8.30;;;4.40;;
3867;SDS011;1949;48.152;11.528;2023-07-09T01:24:53;7.53;;;4.10;;
3867;SDS011;1949;48.152;11.528;2023-07-09T01:27:34;9.27;;;3.80;;
3867;SDS011;1949;48.152;11.528;2023-07-09T01:30:01;8.90;;;4.17;;
3867;SDS011;1949;48.152;11.528;2023-07-09T01:32:58;8.70;;;4.40;;
3867;SDS011;1949;48.152;11.528;2023-07-09T01:35:26;12.70;;;4.00;;
3867;SDS011;1949;48.152;11.528;2023-07-09T01:37:53;9.63;;;3.90;;
3867;SDS011;1949;48.152;11.528;2023-07-09T01:40:21;20.90;;;11.13;;
3867;SDS011;1949;48.152;11.528;2023-07-09T01:42:49;21.80;;;11.23;;
3867;SDS011;1949;48.152;11.528;2023-07-09T01:45:16;13.97;;;5.30;;
3867;SDS011;1949;48.152;11.528;2023-07-09T01:47:43;11.13;;;6.30;;
3867;SDS011;1949;48.152;11.528;2023-07-09T01:50:09;10.20;;;5.20;;
3867;SDS011;1949;48.152;11.528;2023-07-09T01:52:36;9.57;;;4.23;;
3867;SDS011;1949;48.152;11.528;2023-07-09T01:55:06;7.87;;;4.60;;
3867;SDS011;1949;48.152;11.528;2023-07-09T01:57:34;7.03;;;4.30;;
3867;SDS011;1949;48.152;11.528;2023-07-09T02:00:02;7.30;;;4.17;;
3867;SDS011;1949;48.152;11.528;2023-07-09T02:02:36;6.40;;;3.80;;
3867;SDS011;1949;48.152;11.528;2023-07-09T02:05:04;8.43;;;4.27;;
3867;SDS011;1949;48.152;11.528;2023-07-09T02:07:30;14.40;;;8.53;;
3867;SDS011;1949;48.152;11.528;2023-07-09T02:09:56;47.10;;;24.07;;
3867;SDS011;1949;48.152;11.528;2023-07-09T02:12:23;28.83;;;15.70;;
3867;SDS011;1949;48.152;11.528;2023-07-09T02:14:49;16.73;;;8.50;;
3867;SDS011;1949;48.152;11.528;2023-07-09T02:17:15;13.53;;;6.30;;
3867;SDS011;1949;48.152;11.528;2023-07-09T02:19:41;16.90;;;7.70;;
3867;SDS011;1949;48.152;11.528;2023-07-09T02:22:07;27.87;;;13.47;;
3867;SDS011;1949;48.152;11.528;2023-07-09T02:24:34;37.90;;;20.80;;
3867;SDS011;1949;48.152;11.528;2023-07-09T02:27:01;30.47;;;14.97;;
3867;SDS011;1949;48.152;11.528;2023-07-09T02:29:29;13.73;;;6.60;;
3867;SDS011;1949;48.152;11.528;2023-07-09T02:31:56;10.93;;;4.30;;
3867;SDS011;1949;48.152;11.528;2023-07-09T02:34:24;12.80;;;4.37;;
3867;SDS011;1949;48.152;11.528;2023-07-09T02:36:53;9.43;;;4.07;;
3867;SDS011;1949;48.152;11.528;2023-07-09T02:39:21;13.83;;;4.73;;
3867;SDS011;1949;48.152;11.528;2023-07-09T02:41:49;13.33;;;4.80;;
3867;SDS011;1949;48.152;11.528;2023-07-09T02:44:15;6.57;;;3.20;;
3867;SDS011;1949;48.152;11.528;2023-07-09T02:46:42;7.33;;;3.43;;
3867;SDS011;1949;48.152;11.528;2023-07-09T02:49:08;5.93;;;3.10;;
3867;SDS011;1949;48.152;11.528;2023-07-09T02:51:35;9.70;;;3.70;;
3867;SDS011;1949;48.152;11.528;2023-07-09T02:54:01;7.73;;;3.27;;
3867;SDS011;1949;48.152;11.528;2023-07-09T02:56:28;8.63;;;3.97;;
3867;SDS011;1949;48.152;11.528;2023-07-09T02:58:54;10.10;;;3.97;;
3867;SDS011;1949;48.152;11.528;2023-07-09T03:01:20;7.53;;;2.97;;
3867;SDS011;1949;48.152;11.528;2023-07-09T03:03:50;6.43;;;3.60;;
3867;SDS011;1949;48.152;11.528;2023-07-09T03:06:19;5.63;;;3.43;;
3867;SDS011;1949;48.152;11.528;2023-07-09T03:08:45;5.33;;;4.20;;
3867;SDS011;1949;48.152;11.528;2023-07-09T03:11:12;8.03;;;3.37;;
3867;SDS011;1949;48.152;11.528;2023-07-09T03:13:39;6.50;;;3.80;;
3867;SDS011;1949;48.152;11.528;2023-07-09T03:16:05;7.80;;;3.10;;
3867;SDS011;1949;48.152;11.528;2023-07-09T03:18:31;6.30;;;3.57;;
3867;SDS011;1949;48.152;11.528;2023-07-09T03:20:58;8.17;;;3.53;;
3867;SDS011;1949;48.152;11.528;2023-07-09T03:23:25;9.30;;;5.60;;
3867;SDS011;1949;48.152;11.528;2023-07-09T03:25:51;10.07;;;3.90;;
3867;SDS011;1949;48.152;11.528;2023-07-09T03:28:17;7.40;;;3.20;;
3867;SDS011;1949;48.152;11.528;2023-07-09T03:30:44;6.57;;;3.60;;
3867;SDS011;1949;48.152;11.528;2023-07-09T03:33:12;6.73;;;3.60;;
3867;SDS011;1949;48.152;11.528;2023-07-09T03:35:39;6.30;;;3.10;;
3867;SDS011;1949;48.152;11.528;2023-07-09T03:38:06;7.30;;;3.80;;
3867;SDS011;1949;48.152;11.528;2023-07-09T03:40:32;12.30;;;3.20;;
3867;SDS011;1949;48.152;11.528;2023-07-09T03:42:58;7.00;;;4.13;;
3867;SDS011;1949;48.152;11.528;2023-07-09T03:45:24;7.23;;;4.23;;
3867;SDS011;1949;48.152;11.528;2023-07-09T03:47:51;6.47;;;3.40;;
3867;SDS011;1949;48.152;11.528;2023-07-09T03:50:17;7.87;;;3.57;;
3867;SDS011;1949;48.152;11.528;2023-07-09T03:52:43;9.30;;;3.50;;
3867;SDS011;1949;48.152;11.528;2023-07-09T03:55:09;9.43;;;3.90;;
3867;SDS011;1949;48.152;11.528;2023-07-09T03:57:35;7.47;;;3.53;;
3867;SDS011;1949;48.152;11.528;2023-07-09T04:00:02;5.77;;;3.20;;
3867;SDS011;1949;48.152;11.528;2023-07-09T04:02:29;5.33;;;3.13;;
3867;SDS011;1949;48.152;11.528;2023-07-09T04:04:56;6.10;;;3.20;;
3867;SDS011;1949;48.152;11.528;2023-07-09T04:07:22;7.73;;;3.90;;
3867;SDS011;1949;48.152;11.528;2023-07-09T04:09:48;10.33;;;4.03;;
3867;SDS011;1949;48.152;11.528;2023-07-09T04:12:15;7.30;;;3.10;;
3867;SDS011;1949;48.152;11.528;2023-07-09T04:14:40;10.60;;;3.47;;
3867;SDS011;1949;48.152;11.528;2023-07-09T04:17:06;11.10;;;3.30;;
3867;SDS011;1949;48.152;11.528;2023-07-09T04:19:34;7.10;;;3.50;;
3867;SDS011;1949;48.152;11.528;2023-07-09T04:22:00;8.20;;;4.37;;
3867;SDS011;1949;48.152;11.528;2023-07-09T04:24:26;6.80;;;3.73;;
3867;SDS011;1949;48.152;11.528;2023-07-09T04:26:52;9.33;;;3.83;;
3867;SDS011;1949;48.152;11.528;2023-07-09T04:29:21;6.23;;;3.37;;
3867;SDS011;1949;48.152;11.528;2023-07-09T04:31:49;5.50;;;2.83;;
3867;SDS011;1949;48.152;11.528;2023-07-09T04:34:14;5.73;;;3.80;;
3867;SDS011;1949;48.152;11.528;2023-07-09T04:36:40;10.93;;;4.00;;
3867;SDS011;1949;48.152;11.528;2023-07-09T04:39:06;8.40;;;3.20;;
3867;SDS011;1949;48.152;11.528;2023-07-09T04:41:32;5.57;;;3.43;;
3867;SDS011;1949;48.152;11.528;2023-07-09T04:43:58;6.43;;;3.50;;
3867;SDS011;1949;48.152;11.528;2023-07-09T04:46:24;5.20;;;3.03;;
3867;SDS011;1949;48.152;11.528;2023-07-09T04:48:50;6.70;;;3.00;;
3867;SDS011;1949;48.152;11.528;2023-07-09T04:51:15;7.80;;;3.20;;
3867;SDS011;1949;48.152;11.528;2023-07-09T04:53:42;5.67;;;3.57;;
3867;SDS011;1949;48.152;11.528;2023-07-09T04:56:08;12.50;;;3.70;;
3867;SDS011;1949;48.152;11.528;2023-07-09T04:58:35;5.57;;;3.20;;
3867;SDS011;1949;48.152;11.528;2023-07-09T05:01:01;7.73;;;3.13;;
3867;SDS011;1949;48.152;11.528;2023-07-09T05:03:28;7.50;;;3.60;;
3867;SDS011;1949;48.152;11.528;2023-07-09T05:05:53;7.00;;;3.30;;
3867;SDS011;1949;48.152;11.528;2023-07-09T05:08:20;7.20;;;3.30;;
3867;SDS011;1949;48.152;11.528;2023-07-09T05:10:49;5.57;;;3.30;;
3867;SDS011;1949;48.152;11.528;2023-07-09T05:13:20;13.17;;;4.00;;
3867;SDS011;1949;48.152;11.528;2023-07-09T05:15:46;7.73;;;4.10;;
3867;SDS011;1949;48.152;11.528;2023-07-09T05:18:13;9.47;;;4.97;;
3867;SDS011;1949;48.152;11.528;2023-07-09T05:20:40;16.80;;;7.93;;
3867;SDS011;1949;48.152;11.528;2023-07-09T05:23:08;9.20;;;4.10;;
3867;SDS011;1949;48.152;11.528;2023-07-09T05:25:34;18.90;;;9.97;;
3867;SDS011;1949;48.152;11.528;2023-07-09T05:28:00;7.43;;;4.90;;
3867;SDS011;1949;48.152;11.528;2023-07-09T05:30:26;11.73;;;6.50;;
3867;SDS011;1949;48.152;11.528;2023-07-09T05:32:52;11.70;;;5.03;;
3867;SDS011;1949;48.152;11.528;2023-07-09T05:35:21;12.00;;;5.80;;
3867;SDS011;1949;48.152;11.528;2023-07-09T05:37:46;10.63;;;5.13;;
3867;SDS011;1949;48.152;11.528;2023-07-09T05:40:12;9.40;;;4.17;;
3867;SDS011;1949;48.152;11.528;2023-07-09T05:42:38;8.80;;;4.70;;
3867;SDS011;1949;48.152;11.528;2023-07-09T05:45:04;8.27;;;3.87;;
3867;SDS011;1949;48.152;11.528;2023-07-09T05:47:30;9.80;;;3.83;;
3867;SDS011;1949;48.152;11.528;2023-07-09T05:49:56;5.33;;;2.93;;
3867;SDS011;1949;48.152;11.528;2023-07-09T05:52:22;8.37;;;4.53;;
3867;SDS011;1949;48.152;11.528;2023-07-09T05:54:50;10.80;;;3.80;;
3867;SDS011;1949;48.152;11.528;2023-07-09T05:57:17;8.80;;;3.50;;
3867;SDS011;1949;48.152;11.528;2023-07-09T05:59:42;16.10;;;8.40;;
3867;SDS011;1949;48.152;11.528;2023-07-09T06:02:14;7.77;;;4.10;;
3867;SDS011;1949;48.152;11.528;2023-07-09T06:04:41;7.83;;;4.70;;
3867;SDS011;1949;48.152;11.528;2023-07-09T06:07:07;9.70;;;5.13;;
3867;SDS011;1949;48.152;11.528;2023-07-09T06:09:34;8.40;;;4.73;;
3867;SDS011;1949;48.152;11.528;2023-07-09T06:12:01;13.57;;;4.23;;
3867;SDS011;1949;48.152;11.528;2023-07-09T06:14:27;6.63;;;3.60;;
3867;SDS011;1949;48.152;11.528;2023-07-09T06:16:53;7.93;;;4.97;;
3867;SDS011;1949;48.152;11.528;2023-07-09T06:19:19;13.23;;;7.50;;
3867;SDS011;1949;48.152;11.528;2023-07-09T06:21:44;14.90;;;7.00;;
3867;SDS011;1949;48.152;11.528;2023-07-09T06:24:10;7.93;;;3.90;;
3867;SDS011;1949;48.152;11.528;2023-07-09T06:26:36;9.87;;;5.43;;
3867;SDS011;1949;48.152;11.528;2023-07-09T06:29:02;8.93;;;4.97;;
3867;SDS011;1949;48.152;11.528;2023-07-09T06:31:29;8.53;;;5.00;;
3867;SDS011;1949;48.152;11.528;2023-07-09T06:33:55;15.20;;;8.80;;
3867;SDS011;1949;48.152;11.528;2023-07-09T06:36:20;6.93;;;4.73;;
3867;SDS011;1949;48.152;11.528;2023-07-09T06:38:47;12.60;;;7.30;;
3867;SDS011;1949;48.152;11.528;2023-07-09T06:41:15;9.93;;;4.33;;
3867;SDS011;1949;48.152;11.528;2023-07-09T06:43:42;7.30;;;4.30;;
3867;SDS011;1949;48.152;11.528;2023-07-09T06:46:09;9.10;;;5.70;;
3867;SDS011;1949;48.152;11.528;2023-07-09T06:48:36;16.37;;;7.20;;
3867;SDS011;1949;48.152;11.528;2023-07-09T06:51:03;6.90;;;4.33;;
3867;SDS011;1949;48.152;11.528;2023-07-09T06:53:31;11.90;;;6.80;;
3867;SDS011;1949;48.152;11.528;2023-07-09T06:55:57;20.70;;;10.60;;
3867;SDS011;1949;48.152;11.528;2023-07-09T06:58:26;11.70;;;4.30;;
3867;SDS011;1949;48.152;11.528;2023-07-09T07:00:56;8.13;;;3.27;;
3867;SDS011;1949;48.152;11.528;2023-07-09T07:03:24;8.73;;;5.07;;
3867;SDS011;1949;48.152;11.528;2023-07-09T07:05:52;11.77;;;5.50;;
3867;SDS011;1949;48.152;11.528;2023-07-09T07:08:21;7.27;;;4.20;;
3867;SDS011;1949;48.152;11.528;2023-07-09T07:10:48;13.80;;;3.93;;
3867;SDS011;1949;48.152;11.528;2023-07-09T07:13:15;13.10;;;6.70;;
3867;SDS011;1949;48.152;11.528;2023-07-09T07:15:44;9.67;;;4.17;;
3867;SDS011;1949;48.152;11.528;2023-07-09T07:18:13;7.87;;;2.97;;
3867;SDS011;1949;48.152;11.528;2023-07-09T07:20:39;10.47;;;5.00;;
3867;SDS011;1949;48.152;11.528;2023-07-09T07:23:04;8.60;;;4.70;;
3867;SDS011;1949;48.152;11.528;2023-07-09T07:25:31;10.97;;;5.83;;
3867;SDS011;1949;48.152;11.528;2023-07-09T07:27:58;10.90;;;6.67;;
3867;SDS011;1949;48.152;11.528;2023-07-09T07:30:24;12.10;;;8.63;;
3867;SDS011;1949;48.152;11.528;2023-07-09T07:32:50;11.03;;;7.03;;
3867;SDS011;1949;48.152;11.528;2023-07-09T07:35:22;11.30;;;5.83;;
3867;SDS011;1949;48.152;11.528;2023-07-09T07:37:48;12.23;;;6.20;;
3867;SDS011;1949;48.152;11.528;2023-07-09T07:40:14;10.50;;;4.30;;
3867;SDS011;1949;48.152;11.528;2023-07-09T07:42:39;14.30;;;3.70;;
3867;SDS011;1949;48.152;11.528;2023-07-09T07:45:05;5.40;;;3.50;;
3867;SDS011;1949;48.152;11.528;2023-07-09T07:47:33;7.10;;;4.53;;
3867;SDS011;1949;48.152;11.528;2023-07-09T07:49:59;6.13;;;3.20;;
3867;SDS011;1949;48.152;11.528;2023-07-09T07:52:25;11.00;;;3.03;;
3867;SDS011;1949;48.152;11.528;2023-07-09T07:54:51;6.07;;;4.17;;
3867;SDS011;1949;48.152;11.528;2023-07-09T07:57:17;18.90;;;11.20;;
3867;SDS011;1949;48.152;11.528;2023-07-09T07:59:43;10.93;;;5.70;;
3867;SDS011;1949;48.152;11.528;2023-07-09T08:02:12;7.70;;;4.20;;
3867;SDS011;1949;48.152;11.528;2023-07-09T08:04:39;7.00;;;3.97;;
3867;SDS011;1949;48.152;11.528;2023-07-09T08:07:07;19.00;;;10.77;;
3867;SDS011;1949;48.152;11.528;2023-07-09T08:09:34;18.17;;;6.90;;
3867;SDS011;1949;48.152;11.528;2023-07-09T08:12:00;8.20;;;3.73;;
3867;SDS011;1949;48.152;11.528;2023-07-09T08:14:34;21.70;;;6.60;;
3867;SDS011;1949;48.152;11.528;2023-07-09T08:17:00;30.27;;;16.80;;
3867;SDS011;1949;48.152;11.528;2023-07-09T08:19:26;30.80;;;16.73;;
3867;SDS011;1949;48.152;11.528;2023-07-09T08:21:51;6.90;;;4.23;;
3867;SDS011;1949;48.152;11.528;2023-07-09T08:24:17;15.73;;;4.07;;
3867;SDS011;1949;48.152;11.528;2023-07-09T08:26:43;5.93;;;3.90;;
3867;SDS011;1949;48.152;11.528;2023-07-09T08:29:08;6.53;;;3.23;;
3867;SDS011;1949;48.152;11.528;2023-07-09T08:31:34;13.60;;;7.90;;
3867;SDS011;1949;48.152;11.528;2023-07-09T08:34:00;23.97;;;8.87;;
3867;SDS011;1949;48.152;11.528;2023-07-09T08:36:27;7.13;;;4.07;;
3867;SDS011;1949;48.152;11.528;2023-07-09T08:38:53;19.87;;;12.03;;
3867;SDS011;1949;48.152;11.528;2023-07-09T08:41:28;15.87;;;8.00;;
3867;SDS011;1949;48.152;11.528;2023-07-09T08:49:41;12.80;;;7.17;;
3867;SDS011;1949;48.152;11.528;2023-07-09T08:55:27;16.80;;;8.80;;
3867;SDS011;1949;48.152;11.528;2023-07-09T08:57:57;9.60;;;3.90;;
3867;SDS011;1949;48.152;11.528;2023-07-09T09:03:03;15.33;;;6.67;;
3867;SDS011;1949;48.152;11.528;2023-07-09T09:05:42;10.03;;;4.07;;
3867;SDS011;1949;48.152;11.528;2023-07-09T09:13:54;4.57;;;2.73;;
3867;SDS011;1949;48.152;11.528;2023-07-09T09:16:33;12.33;;;3.70;;
3867;SDS011;1949;48.152;11.528;2023-07-09T09:19:03;9.17;;;3.77;;
3867;SDS011;1949;48.152;11.528;2023-07-09T09:21:47;7.10;;;2.67;;
3867;SDS011;1949;48.152;11.528;2023-07-09T09:24:19;10.70;;;3.80;;
3867;SDS011;1949;48.152;11.528;2023-07-09T09:26:52;10.40;;;4.60;;
3867;SDS011;1949;48.152;11.528;2023-07-09T09:29:23;10.70;;;4.37;;
3867;SDS011;1949;48.152;11.528;2023-07-09T09:31:50;21.30;;;10.50;;
3867;SDS011;1949;48.152;11.528;2023-07-09T09:34:27;13.13;;;7.03;;
3867;SDS011;1949;48.152;11.528;2023-07-09T09:36:55;9.70;;;3.57;;
3867;SDS011;1949;48.152;11.528;2023-07-09T09:39:23;17.40;;;8.70;;
3867;SDS011;1949;48.152;11.528;2023-07-09T09:41:51;19.83;;;11.27;;
3867;SDS011;1949;48.152;11.528;2023-07-09T09:44:26;11.30;;;5.87;;
3867;SDS011;1949;48.152;11.528;2023-07-09T09:46:55;13.60;;;6.50;;
3867;SDS011;1949;48.152;11.528;2023-07-09T09:49:22;14.70;;;5.70;;
3867;SDS011;1949;48.152;11.528;2023-07-09T09:51:48;26.00;;;16.00;;
3867;SDS011;1949;48.152;11.528;2023-07-09T09:54:35;8.97;;;3.63;;
3867;SDS011;1949;48.152;11.528;2023-07-09T09:57:00;11.00;;;3.27;;
3867;SDS011;1949;48.152;11.528;2023-07-09T09:59:32;5.60;;;3.70;;
3867;SDS011;1949;48.152;11.528;2023-07-09T10:02:12;4.67;;;3.10;;
3867;SDS011;1949;48.152;11.528;2023-07-09T10:04:44;5.00;;;3.17;;
3867;SDS011;1949;48.152;11.528;2023-07-09T10:07:11;11.30;;;5.17;;
3867;SDS011;1949;48.152;11.528;2023-07-09T10:09:59;5.60;;;4.00;;
3867;SDS011;1949;48.152;11.528;2023-07-09T10:12:43;5.90;;;3.73;;
3867;SDS011;1949;48.152;11.528;2023-07-09T10:15:25;6.20;;;3.70;;
3867;SDS011;1949;48.152;11.528;2023-07-09T10:26:46;14.97;;;3.10;;
3867;SDS011;1949;48.152;11.528;2023-07-09T10:37:54;4.87;;;3.17;;
3867;SDS011;1949;48.152;11.528;2023-07-09T10:40:30;6.90;;;3.50;;
3867;SDS011;1949;48.152;11.528;2023-07-09T10:43:01;5.77;;;3.27;;
3867;SDS011;1949;48.152;11.528;2023-07-09T10:45:31;7.37;;;3.20;;
3867;SDS011;1949;48.152;11.528;2023-07-09T10:50:48;5.07;;;3.23;;
3867;SDS011;1949;48.152;11.528;2023-07-09T10:56:11;9.57;;;3.70;;
3867;SDS011;1949;48.152;11.528;2023-07-09T10:58:46;6.60;;;3.47;;
3867;SDS011;1949;48.152;11.528;2023-07-09T11:01:19;8.50;;;4.77;;
3867;SDS011;1949;48.152;11.528;2023-07-09T11:03:54;5.10;;;3.60;;
3867;SDS011;1949;48.152;11.528;2023-07-09T11:09:04;6.37;;;3.10;;
3867;SDS011;1949;48.152;11.528;2023-07-09T11:11:43;4.47;;;2.97;;
3867;SDS011;1949;48.152;11.528;2023-07-09T11:14:28;3.03;;;2.60;;
3867;SDS011;1949;48.152;11.528;2023-07-09T11:17:12;5.80;;;2.60;;
3867;SDS011;1949;48.152;11.528;2023-07-09T11:19:42;4.70;;;2.60;;
3867;SDS011;1949;48.152;11.528;2023-07-09T11:22:21;7.57;;;3.30;;
3867;SDS011;1949;48.152;11.528;2023-07-09T11:24:52;10.50;;;4.17;;
3867;SDS011;1949;48.152;11.528;2023-07-09T11:27:31;8.27;;;3.90;;
3867;SDS011;1949;48.152;11.528;2023-07-09T11:29:58;9.10;;;5.27;;
3867;SDS011;1949;48.152;11.528;2023-07-09T11:32:29;10.83;;;2.70;;
3867;SDS011;1949;48.152;11.528;2023-07-09T11:35:06;7.60;;;2.63;;
3867;SDS011;1949;48.152;11.528;2023-07-09T11:37:43;8.80;;;3.20;;
3867;SDS011;1949;48.152;11.528;2023-07-09T11:40:11;6.33;;;2.80;;
3867;SDS011;1949;48.152;11.528;2023-07-09T11:42:57;7.20;;;3.93;;
3867;SDS011;1949;48.152;11.528;2023-07-09T11:45:30;11.80;;;3.20;;
3867;SDS011;1949;48.152;11.528;2023-07-09T11:50:32;8.13;;;3.00;;
3867;SDS011;1949;48.152;11.528;2023-07-09T11:53:24;3.97;;;2.73;;
3867;SDS011;1949;48.152;11.528;2023-07-09T11:56:14;10.13;;;6.53;;
3867;SDS011;1949;48.152;11.528;2023-07-09T11:58:48;10.03;;;4.70;;
3867;SDS011;1949;48.152;11.528;2023-07-09T12:01:22;11.30;;;6.47;;
3867;SDS011;1949;48.152;11.528;2023-07-09T12:04:01;27.40;;;11.60;;
3867;SDS011;1949;48.152;11.528;2023-07-09T12:06:30;15.40;;;9.07;;
3867;SDS011;1949;48.152;11.528;2023-07-09T12:08:59;15.60;;;8.13;;
3867;SDS011;1949;48.152;11.528;2023-07-09T12:11:27;24.43;;;10.33;;
3867;SDS011;1949;48.152;11.528;2023-07-09T12:13:54;15.97;;;7.93;;
3867;SDS011;1949;48.152;11.528;2023-07-09T12:16:30;8.50;;;5.83;;
3867;SDS011;1949;48.152;11.528;2023-07-09T12:18:59;11.17;;;7.20;;
3867;SDS011;1949;48.152;11.528;2023-07-09T12:21:26;8.53;;;5.40;;
3867;SDS011;1949;48.152;11.528;2023-07-09T12:23:54;11.47;;;6.80;;
3867;SDS011;1949;48.152;11.528;2023-07-09T12:26:23;20.83;;;13.90;;
3867;SDS011;1949;48.152;11.528;2023-07-09T12:28:52;23.40;;;14.00;;
3867;SDS011;1949;48.152;11.528;2023-07-09T12:31:24;21.00;;;13.03;;
3867;SDS011;1949;48.152;11.528;2023-07-09T12:33:52;12.13;;;7.70;;
3867;SDS011;1949;48.152;11.528;2023-07-09T12:36:20;12.37;;;8.30;;
3867;SDS011;1949;48.152;11.528;2023-07-09T12:38:49;13.43;;;7.23;;
3867;SDS011;1949;48.152;11.528;2023-07-09T12:41:22;34.37;;;21.73;;
3867;SDS011;1949;48.152;11.528;2023-07-09T12:43:53;55.40;;;29.20;;
3867;SDS011;1949;48.152;11.528;2023-07-09T12:46:22;52.57;;;30.43;;
3867;SDS011;1949;48.152;11.528;2023-07-09T12:48:49;35.57;;;19.00;;
3867;SDS011;1949;48.152;11.528;2023-07-09T12:51:23;80.87;;;47.87;;
3867;SDS011;1949;48.152;11.528;2023-07-09T12:54:02;92.00;;;52.70;;
3867;SDS011;1949;48.152;11.528;2023-07-09T12:56:46;41.50;;;26.33;;
3867;SDS011;1949;48.152;11.528;2023-07-09T12:59:21;77.80;;;43.80;;
3867;SDS011;1949;48.152;11.528;2023-07-09T13:01:55;80.93;;;46.73;;
3867;SDS011;1949;48.152;11.528;2023-07-09T13:04:34;74.13;;;40.87;;
3867;SDS011;1949;48.152;11.528;2023-07-09T13:07:04;64.83;;;40.07;;
3867;SDS011;1949;48.152;11.528;2023-07-09T13:09:50;36.70;;;21.87;;
3867;SDS011;1949;48.152;11.528;2023-07-09T13:12:20;55.73;;;27.33;;
3867;SDS011;1949;48.152;11.528;2023-07-09T13:14:53;30.57;;;14.50;;
3867;SDS011;1949;48.152;11.528;2023-07-09T13:17:19;96.20;;;52.47;;
3867;SDS011;1949;48.152;11.528;2023-07-09T13:19:45;64.20;;;35.57;;
3867;SDS011;1949;48.152;11.528;2023-07-09T13:22:16;114.73;;;55.93;;
3867;SDS011;1949;48.152;11.528;2023-07-09T13:24:45;60.20;;;35.73;;
3867;SDS011;1949;48.152;11.528;2023-07-09T13:27:12;31.97;;;19.40;;
3867;SDS011;1949;48.152;11.528;2023-07-09T13:29:41;106.83;;;60.30;;
3867;SDS011;1949;48.152;11.528;2023-07-09T13:32:11;90.37;;;47.40;;
3867;SDS011;1949;48.152;11.528;2023-07-09T13:34:40;140.63;;;81.70;;
3867;SDS011;1949;48.152;11.528;2023-07-09T13:37:16;116.40;;;66.80;;
3867;SDS011;1949;48.152;11.528;2023-07-09T13:39:42;55.57;;;31.67;;
3867;SDS011;1949;48.152;11.528;2023-07-09T13:42:11;21.83;;;14.33;;
3867;SDS011;1949;48.152;11.528;2023-07-09T13:44:39;10.37;;;4.77;;
3867;SDS011;1949;48.152;11.528;2023-07-09T13:47:10;39.60;;;19.97;;
3867;SDS011;1949;48.152;11.528;2023-07-09T13:49:45;36.57;;;22.20;;
3867;SDS011;1949;48.152;11.528;2023-07-09T13:52:17;70.47;;;41.50;;
3867;SDS011;1949;48.152;11.528;2023-07-09T13:54:46;15.13;;;10.27;;
3867;SDS011;1949;48.152;11.528;2023-07-09T13:57:17;54.93;;;32.20;;
3867;SDS011;1949;48.152;11.528;2023-07-09T13:59:44;53.03;;;28.00;;
3867;SDS011;1949;48.152;11.528;2023-07-09T14:02:17;33.30;;;19.47;;
3867;SDS011;1949;48.152;11.528;2023-07-09T14:04:49;39.30;;;24.67;;
3867;SDS011;1949;48.152;11.528;2023-07-09T14:07:26;75.90;;;43.73;;
3867;SDS011;1949;48.152;11.528;2023-07-09T14:10:05;31.20;;;19.60;;
3867;SDS011;1949;48.152;11.528;2023-07-09T14:12:35;9.40;;;6.17;;
3867;SDS011;1949;48.152;11.528;2023-07-09T14:15:05;13.67;;;6.83;;
3867;SDS011;1949;48.152;11.528;2023-07-09T14:17:46;48.50;;;29.80;;
3867;SDS011;1949;48.152;11.528;2023-07-09T14:20:15;61.83;;;37.30;;
3867;SDS011;1949;48.152;11.528;2023-07-09T14:22:44;54.97;;;32.80;;
3867;SDS011;1949;48.152;11.528;2023-07-09T14:25:23;55.90;;;36.17;;
3867;SDS011;1949;48.152;11.528;2023-07-09T14:27:51;30.73;;;19.50;;
3867;SDS011;1949;48.152;11.528;2023-07-09T14:30:19;28.50;;;15.00;;
3867;SDS011;1949;48.152;11.528;2023-07-09T14:32:48;29.50;;;18.47;;
3867;SDS011;1949;48.152;11.528;2023-07-09T14:35:16;29.40;;;18.77;;
3867;SDS011;1949;48.152;11.528;2023-07-09T14:37:46;73.80;;;45.73;;
3867;SDS011;1949;48.152;11.528;2023-07-09T14:40:15;23.07;;;14.60;;
3867;SDS011;1949;48.152;11.528;2023-07-09T14:42:42;50.40;;;31.17;;
3867;SDS011;1949;48.152;11.528;2023-07-09T14:45:24;31.60;;;20.97;;
3867;SDS011;1949;48.152;11.528;2023-07-09T14:47:53;61.13;;;37.17;;
3867;SDS011;1949;48.152;11.528;2023-07-09T14:50:20;56.30;;;30.67;;
3867;SDS011;1949;48.152;11.528;2023-07-09T14:52:49;24.10;;;13.70;;
3867;SDS011;1949;48.152;11.528;2023-07-09T14:55:17;48.40;;;28.33;;
3867;SDS011;1949;48.152;11.528;2023-07-09T14:57:44;31.50;;;18.40;;
3867;SDS011;1949;48.152;11.528;2023-07-09T15:00:19;81.07;;;51.20;;
3867;SDS011;1949;48.152;11.528;2023-07-09T15:02:47;62.17;;;40.20;;
3867;SDS011;1949;48.152;11.528;2023-07-09T15:07:48;41.50;;;26.07;;
3867;SDS011;1949;48.152;11.528;2023-07-09T15:10:17;35.90;;;20.27;;
3867;SDS011;1949;48.152;11.528;2023-07-09T15:12:48;29.50;;;14.30;;
3867;SDS011;1949;48.152;11.528;2023-07-09T15:15:26;36.33;;;22.90;;
3867;SDS011;1949;48.152;11.528;2023-07-09T15:18:00;29.63;;;17.50;;
3867;SDS011;1949;48.152;11.528;2023-07-09T15:20:33;38.07;;;24.77;;
3867;SDS011;1949;48.152;11.528;2023-07-09T15:22:59;73.60;;;42.10;;
3867;SDS011;1949;48.152;11.528;2023-07-09T15:25:28;47.50;;;29.83;;
3867;SDS011;1949;48.152;11.528;2023-07-09T15:27:55;34.73;;;20.27;;
3867;SDS011;1949;48.152;11.528;2023-07-09T15:30:22;51.37;;;27.30;;
3867;SDS011;1949;48.152;11.528;2023-07-09T15:32:55;38.83;;;26.03;;
3867;SDS011;1949;48.152;11.528;2023-07-09T15:35:22;33.87;;;23.10;;
3867;SDS011;1949;48.152;11.528;2023-07-09T15:37:48;62.40;;;37.70;;
3867;SDS011;1949;48.152;11.528;2023-07-09T15:40:25;19.27;;;11.23;;
3867;SDS011;1949;48.152;11.528;2023-07-09T15:43:03;27.87;;;18.47;;
3867;SDS011;1949;48.152;11.528;2023-07-09T15:45:33;58.30;;;34.60;;
3867;SDS011;1949;48.152;11.528;2023-07-09T15:48:09;62.60;;;39.07;;
3867;SDS011;1949;48.152;11.528;2023-07-09T15:50:52;45.47;;;27.20;;
3867;SDS011;1949;48.152;11.528;2023-07-09T15:53:19;39.13;;;20.10;;
3867;SDS011;1949;48.152;11.528;2023-07-09T15:55:48;25.77;;;12.17;;
3867;SDS011;1949;48.152;11.528;2023-07-09T15:58:23;29.93;;;18.07;;
3867;SDS011;1949;48.152;11.528;2023-07-09T16:00:56;124.53;;;79.20;;